createdAt,value
2023-05-09T00:00:05.459Z,102623.44
2023-05-09T00:02:34.655Z,102614.88
2023-05-09T00:05:03.637Z,102615.78
2023-05-09T00:07:31.613Z,102617.63
2023-05-09T00:10:02.600Z,102628.84
2023-05-09T00:12:30.545Z,102627.28
2023-05-09T00:14:59.856Z,102627.28
2023-05-09T00:17:28.692Z,102637.63
2023-05-09T00:19:56.601Z,102631.69
2023-05-09T00:22:24.445Z,102634.28
2023-05-09T00:24:52.675Z,102637.13
2023-05-09T00:27:20.709Z,102638.28
2023-05-09T00:29:48.908Z,102629.72
2023-05-09T00:32:18.320Z,102631.50
2023-05-09T00:34:46.207Z,102627.34
2023-05-09T00:37:14.160Z,102641.50
2023-05-09T00:39:42.124Z,102629.53
2023-05-09T00:42:10.058Z,102635.59
2023-05-09T00:44:38.136Z,102628.88
2023-05-09T00:47:06.685Z,102633.25
2023-05-09T00:49:36.147Z,102623.88
2023-05-09T00:54:16.851Z,102624.13
2023-05-09T00:56:44.824Z,102627.91
2023-05-09T00:59:12.804Z,102631.38
2023-05-09T01:01:41.001Z,102623.03
2023-05-09T01:04:09.064Z,102625.94
2023-05-09T01:06:43.899Z,102625.25
2023-05-09T01:09:20.490Z,102620.53
2023-05-09T01:11:57.264Z,102622.56
2023-05-09T01:14:33.894Z,102620.31
2023-05-09T01:17:13.436Z,102611.81
2023-05-09T01:19:57.762Z,102614.63
2023-05-09T01:22:32.003Z,102614.91
2023-05-09T01:25:44.945Z,102608.22
2023-05-09T01:28:18.068Z,102604.91
2023-05-09T01:30:48.230Z,102604.16
2023-05-09T01:33:20.390Z,102611.25
2023-05-09T01:35:53.502Z,102605.47
2023-05-09T01:38:25.017Z,102610.94
2023-05-09T01:40:56.050Z,102603.38
2023-05-09T01:43:29.005Z,102607.03
2023-05-09T01:45:59.698Z,102605.41
2023-05-09T01:48:30.465Z,102599.38
2023-05-09T01:51:00.151Z,102602.75
2023-05-09T01:53:30.562Z,102594.09
2023-05-09T01:55:59.695Z,102591.44
2023-05-09T01:58:29.077Z,102589.75
2023-05-09T02:00:59.212Z,102597.66
2023-05-09T02:03:27.652Z,102591.66
2023-05-09T02:05:56.811Z,102594.34
2023-05-09T02:08:25.260Z,102590.06
2023-05-09T02:10:53.278Z,102594.44
2023-05-09T02:13:21.216Z,102588.41
2023-05-09T02:15:49.362Z,102588.53
2023-05-09T02:18:18.725Z,102590.34
2023-05-09T02:20:46.701Z,102590.38
2023-05-09T02:23:14.938Z,102590.34
2023-05-09T02:25:42.790Z,102590.41
2023-05-09T02:28:11.672Z,102585.31
2023-05-09T02:30:43.884Z,102582.84
2023-05-09T02:33:13.800Z,102585.53
2023-05-09T02:35:46.745Z,102579.41
2023-05-09T02:38:15.529Z,102581.19
2023-05-09T02:40:44.632Z,102577.81
2023-05-09T02:43:12.674Z,102568.31
2023-05-09T02:45:40.708Z,102577.09
2023-05-09T02:48:09.528Z,102567.56
2023-05-09T02:50:39.594Z,102569.28
2023-05-09T02:53:08.974Z,102568.31
2023-05-09T02:55:36.889Z,102561.44
2023-05-09T02:58:13.523Z,102562.34
2023-05-09T03:00:43.073Z,102567.56
2023-05-09T03:03:11.453Z,102570.16
2023-05-09T03:05:39.392Z,102565.81
2023-05-09T03:08:09.046Z,102558.03
2023-05-09T03:10:37.020Z,102560.63
2023-05-09T03:13:05.116Z,102557.13
2023-05-09T03:15:33.110Z,102550.28
2023-05-09T03:18:01.168Z,102558.84
2023-05-09T03:20:29.097Z,102557.84
2023-05-09T03:22:57.086Z,102563.91
2023-05-09T03:25:27.324Z,102554.38
2023-05-09T03:27:55.011Z,102559.56
2023-05-09T03:30:22.812Z,102549.88
2023-05-09T03:32:50.809Z,102554.78
2023-05-09T03:35:18.836Z,102555.34
2023-05-09T03:37:46.706Z,102549.91
2023-05-09T03:40:14.743Z,102544.44
2023-05-09T03:42:44.048Z,102543.22
2023-05-09T03:45:13.073Z,102546.31
2023-05-09T03:47:41.113Z,102543.41
2023-05-09T03:50:10.348Z,102538.06
2023-05-09T03:52:38.459Z,102539.75
2023-05-09T03:55:07.297Z,102533.03
2023-05-09T03:57:36.608Z,102539.44
2023-05-09T04:00:08.062Z,102540.75
2023-05-09T04:02:36.210Z,102535.78
2023-05-09T04:05:04.452Z,102530.84
2023-05-09T04:07:32.432Z,102539.38
2023-05-09T04:10:01.045Z,102540.28
2023-05-09T04:12:28.948Z,102532.69
2023-05-09T04:14:56.853Z,102533.75
2023-05-09T04:17:26.361Z,102540.13
2023-05-09T04:19:54.344Z,102540.34
2023-05-09T04:22:22.294Z,102535.38
2023-05-09T04:24:50.637Z,102534.44
2023-05-09T04:27:18.552Z,102522.97
2023-05-09T04:29:46.444Z,102526.06
2023-05-09T04:32:14.254Z,102532.88
2023-05-09T04:34:43.697Z,102531.50
2023-05-09T04:37:11.501Z,102532.94
2023-05-09T04:39:39.367Z,102533.75
2023-05-09T04:42:07.305Z,102527.63
2023-05-09T04:44:35.896Z,102530.94
2023-05-09T04:47:03.760Z,102528.63
2023-05-09T04:49:31.824Z,102528.38
2023-05-09T04:52:01.105Z,102528.59
2023-05-09T04:54:28.972Z,102534.91
2023-05-09T04:57:06.354Z,102530.84
2023-05-09T04:59:42.041Z,102538.38
2023-05-09T05:02:09.968Z,102531.75
2023-05-09T05:04:37.926Z,102529.53
2023-05-09T05:07:07.174Z,102525.81
2023-05-09T05:09:35.219Z,102532.50
2023-05-09T05:12:04.359Z,102521.88
2023-05-09T05:14:34.064Z,102524.91
2023-05-09T05:17:01.948Z,102524.31
2023-05-09T05:19:29.835Z,102515.53
2023-05-09T05:21:57.723Z,102516.50
2023-05-09T05:24:27.037Z,102505.19
2023-05-09T05:26:55.114Z,102508.69
2023-05-09T05:29:23.128Z,102504.44
2023-05-09T05:31:51.094Z,102509.50
2023-05-09T05:34:19.003Z,102510.00
2023-05-09T05:36:47.721Z,102505.78
2023-05-09T05:39:15.607Z,102506.75
2023-05-09T05:41:44.853Z,102505.56
2023-05-09T05:44:12.801Z,102500.16
2023-05-09T05:46:40.773Z,102494.19
2023-05-09T05:49:08.776Z,102501.00
2023-05-09T05:51:36.712Z,102499.34
2023-05-09T05:54:04.743Z,102494.53
2023-05-09T05:56:32.556Z,102500.91
2023-05-09T05:59:01.822Z,102488.50
2023-05-09T06:01:29.812Z,102491.63
2023-05-09T06:03:57.725Z,102483.84
2023-05-09T06:06:27.396Z,102480.59
2023-05-09T06:08:55.503Z,102476.97
2023-05-09T06:11:24.429Z,102484.25
2023-05-09T06:13:52.318Z,102475.38
2023-05-09T06:16:22.161Z,102471.50
2023-05-09T06:18:50.406Z,102476.91
2023-05-09T06:21:18.610Z,102470.88
2023-05-09T06:24:04.283Z,102469.81
2023-05-09T06:26:34.326Z,102473.63
2023-05-09T06:29:02.258Z,102459.81
2023-05-09T06:31:31.569Z,102464.53
2023-05-09T06:33:59.510Z,102459.16
2023-05-09T06:36:27.428Z,102461.81
2023-05-09T06:38:55.341Z,102459.00
2023-05-09T06:41:23.266Z,102457.31
2023-05-09T06:43:51.290Z,102459.31
2023-05-09T06:46:19.529Z,102449.16
2023-05-09T06:48:48.857Z,102450.00
2023-05-09T06:51:17.486Z,102454.28
2023-05-09T06:53:45.453Z,102449.44
2023-05-09T06:56:13.671Z,102449.88
2023-05-09T06:58:41.560Z,102448.59
2023-05-09T07:01:09.545Z,102447.41
2023-05-09T07:03:37.468Z,102447.53
2023-05-09T07:06:07.107Z,102449.00
2023-05-09T07:08:34.977Z,102443.75
2023-05-09T07:11:02.936Z,102447.34
2023-05-09T07:13:31.013Z,102444.47
2023-05-09T07:15:58.874Z,102449.81
2023-05-09T07:18:26.678Z,102446.25
2023-05-09T07:20:54.646Z,102450.19
2023-05-09T07:23:25.330Z,102444.91
2023-05-09T07:25:58.589Z,102446.72
2023-05-09T07:28:26.855Z,102444.84
2023-05-09T07:30:56.855Z,102442.19
2023-05-09T07:33:24.853Z,102435.53
2023-05-09T07:35:53.254Z,102429.69
2023-05-09T07:38:21.139Z,102431.22
2023-05-09T07:40:50.434Z,102429.41
2023-05-09T07:43:18.266Z,102436.06
2023-05-09T07:45:47.133Z,102418.44
2023-05-09T07:48:15.146Z,102421.78
2023-05-09T07:50:45.832Z,102419.91
2023-05-09T07:53:13.723Z,102427.25
2023-05-09T07:55:41.569Z,102425.13
2023-05-09T07:58:10.808Z,102411.38
2023-05-09T08:00:38.709Z,102416.81
2023-05-09T08:03:06.826Z,102414.72
2023-05-09T08:05:34.831Z,102407.09
2023-05-09T08:08:02.690Z,102406.53
2023-05-09T08:10:32.277Z,102405.63
2023-05-09T08:13:00.568Z,102405.63
2023-05-09T08:15:29.971Z,102412.94
2023-05-09T08:17:57.945Z,102405.25
2023-05-09T08:20:25.850Z,102399.91
2023-05-09T08:22:53.657Z,102403.78
2023-05-09T08:25:21.563Z,102408.06
2023-05-09T08:27:51.016Z,102403.34
2023-05-09T08:30:20.516Z,102389.94
2023-05-09T08:32:49.832Z,102391.34
2023-05-09T08:35:17.982Z,102397.59
2023-05-09T08:37:47.877Z,102406.63
2023-05-09T08:40:17.173Z,102396.50
2023-05-09T08:42:46.845Z,102394.72
2023-05-09T08:45:15.984Z,102388.25
2023-05-09T08:47:44.140Z,102389.19
2023-05-09T08:50:15.510Z,102383.97
2023-05-09T08:52:44.067Z,102386.00
2023-05-09T08:55:12.747Z,102381.03
2023-05-09T08:57:41.061Z,102388.69
2023-05-09T09:00:11.416Z,102370.38
2023-05-09T09:02:42.363Z,102371.44
2023-05-09T09:05:23.869Z,102369.31
2023-05-09T09:07:59.659Z,102370.13
2023-05-09T09:10:30.153Z,102365.91
2023-05-09T09:12:59.195Z,102365.69
2023-05-09T09:15:30.917Z,102362.28
2023-05-09T09:18:01.020Z,102356.69
2023-05-09T09:20:33.153Z,102358.81
2023-05-09T09:23:06.099Z,102355.09
2023-05-09T09:25:34.146Z,102350.38
2023-05-09T09:28:02.109Z,102356.81
2023-05-09T09:30:30.034Z,102350.75
2023-05-09T09:33:00.660Z,102352.31
2023-05-09T09:35:29.051Z,102355.25
2023-05-09T09:38:07.195Z,102344.03
2023-05-09T09:40:35.214Z,102346.59
2023-05-09T09:43:03.124Z,102349.09
2023-05-09T09:45:33.907Z,102339.06
2023-05-09T09:48:08.231Z,102342.69
2023-05-09T09:50:36.229Z,102339.84
2023-05-09T09:53:05.516Z,102346.84
2023-05-09T09:55:35.641Z,102343.94
2023-05-09T09:58:03.759Z,102341.66
2023-05-09T10:00:32.797Z,102341.19
2023-05-09T10:03:01.392Z,102338.75
2023-05-09T10:05:30.835Z,102328.50
2023-05-09T10:08:00.049Z,102329.97
2023-05-09T10:10:31.559Z,102324.31
2023-05-09T10:13:01.145Z,102331.69
2023-05-09T10:15:41.505Z,102322.41
2023-05-09T10:18:18.297Z,102316.75
2023-05-09T10:20:47.081Z,102316.47
2023-05-09T10:23:17.631Z,102308.28
2023-05-09T10:25:52.597Z,102311.53
2023-05-09T10:28:25.229Z,102313.81
2023-05-09T10:31:01.062Z,102299.75
2023-05-09T10:33:35.490Z,102302.16
2023-05-09T10:36:04.756Z,102307.22
2023-05-09T10:38:32.857Z,102309.97
2023-05-09T10:41:03.034Z,102305.91
2023-05-09T10:43:32.204Z,102305.53
2023-05-09T10:46:00.552Z,102300.56
2023-05-09T10:48:29.143Z,102295.97
2023-05-09T10:50:57.683Z,102302.38
2023-05-09T10:53:26.344Z,102302.03
2023-05-09T10:55:56.655Z,102296.47
2023-05-09T10:58:30.130Z,102290.47
2023-05-09T11:01:00.585Z,102286.69
2023-05-09T11:03:29.430Z,102288.28
2023-05-09T11:05:59.167Z,102286.00
2023-05-09T11:08:28.637Z,102281.06
2023-05-09T11:10:58.041Z,102272.59
2023-05-09T11:13:31.685Z,102279.00
2023-05-09T11:16:09.942Z,102267.66
2023-05-09T11:18:51.972Z,102277.66
2023-05-09T11:21:21.607Z,102263.81
2023-05-09T11:23:52.992Z,102271.66
2023-05-09T11:26:23.900Z,102270.16
2023-05-09T11:28:56.830Z,102262.00
2023-05-09T11:31:24.884Z,102259.09
2023-05-09T11:33:58.339Z,102252.69
2023-05-09T11:36:32.108Z,102259.34
2023-05-09T11:39:06.388Z,102261.28
2023-05-09T11:41:41.277Z,102259.78
2023-05-09T11:44:21.435Z,102247.38
2023-05-09T11:46:50.402Z,102249.44
2023-05-09T11:49:19.621Z,102242.28
2023-05-09T11:51:47.628Z,102242.16
2023-05-09T11:54:15.656Z,102239.81
2023-05-09T11:56:43.770Z,102239.44
2023-05-09T11:59:14.765Z,102241.28
2023-05-09T12:01:44.176Z,102239.31
2023-05-09T12:04:12.172Z,102225.53
2023-05-09T12:06:40.033Z,102229.56
2023-05-09T12:09:10.455Z,102229.31
2023-05-09T12:11:38.230Z,102218.16
2023-05-09T12:14:06.134Z,102212.59
2023-05-09T12:16:34.169Z,102218.38
2023-05-09T12:19:05.150Z,102204.38
2023-05-09T12:21:33.305Z,102202.88
2023-05-09T12:24:01.231Z,102199.00
2023-05-09T12:26:29.092Z,102198.28
2023-05-09T12:28:59.960Z,102179.91
2023-05-09T12:31:28.056Z,102194.13
2023-05-09T12:33:56.197Z,102183.88
2023-05-09T12:36:26.452Z,102178.41
2023-05-09T12:38:54.705Z,102178.66
2023-05-09T12:41:36.980Z,102176.88
2023-05-09T12:44:07.831Z,102174.53
2023-05-09T12:46:37.543Z,102169.69
2023-05-09T12:49:05.816Z,102176.13
2023-05-09T12:51:35.207Z,102170.50
2023-05-09T12:54:05.347Z,102164.22
2023-05-09T12:56:36.370Z,102158.91
2023-05-09T12:59:04.277Z,102157.00
2023-05-09T13:01:32.245Z,102156.66
2023-05-09T13:04:04.229Z,102153.88
2023-05-09T13:08:44.780Z,102145.50
2023-05-09T13:11:16.676Z,102154.16
2023-05-09T13:13:45.099Z,102151.47
2023-05-09T13:16:15.010Z,102141.72
2023-05-09T13:18:45.306Z,102147.34
2023-05-09T13:21:13.245Z,102142.31
2023-05-09T13:23:42.181Z,102145.16
2023-05-09T13:26:11.786Z,102138.19
2023-05-09T13:28:39.711Z,102141.00
2023-05-09T13:31:08.202Z,102130.34
2023-05-09T13:33:36.162Z,102132.28
2023-05-09T13:36:04.157Z,102124.22
2023-05-09T13:38:33.271Z,102126.75
2023-05-09T13:41:01.180Z,102122.44
2023-05-09T13:43:30.449Z,102125.34
2023-05-09T13:45:58.309Z,102123.06
2023-05-09T13:48:26.260Z,102124.75
2023-05-09T13:50:54.332Z,102124.19
2023-05-09T13:53:22.293Z,102119.00
2023-05-09T13:55:50.181Z,102114.41
2023-05-09T13:58:18.037Z,102112.13
2023-05-09T14:00:47.210Z,102116.47
2023-05-09T14:03:15.214Z,102112.69
2023-05-09T14:05:43.505Z,102118.28
2023-05-09T14:08:14.088Z,102115.47
2023-05-09T14:10:44.598Z,102112.50
2023-05-09T14:13:12.561Z,102113.53
2023-05-09T14:15:41.324Z,102113.53
2023-05-09T14:18:11.448Z,102106.47
2023-05-09T14:20:40.703Z,102102.69
2023-05-09T14:23:08.624Z,102102.16
2023-05-09T14:25:36.441Z,102097.13
2023-05-09T14:28:04.567Z,102100.78
2023-05-09T14:30:32.463Z,102097.97
2023-05-09T14:33:00.334Z,102089.88
2023-05-09T14:35:32.852Z,102091.16
2023-05-09T14:38:01.002Z,102082.31
2023-05-09T14:40:31.860Z,102090.38
2023-05-09T14:43:02.554Z,102089.88
2023-05-09T14:45:31.496Z,102089.47
2023-05-09T14:47:59.601Z,102087.63
2023-05-09T14:50:29.053Z,102086.09
2023-05-09T14:52:56.957Z,102095.19
2023-05-09T14:55:26.628Z,102090.28
2023-05-09T14:57:54.820Z,102074.44
2023-05-09T15:00:23.721Z,102085.50
2023-05-09T15:02:51.986Z,102078.72
2023-05-09T15:05:20.059Z,102072.59
2023-05-09T15:07:49.420Z,102075.03
2023-05-09T15:10:17.522Z,102079.75
2023-05-09T15:12:45.699Z,102078.63
2023-05-09T15:15:15.603Z,102074.69
2023-05-09T15:17:44.261Z,102066.63
2023-05-09T15:20:15.360Z,102070.28
2023-05-09T15:22:43.755Z,102056.63
2023-05-09T15:25:13.429Z,102055.50
2023-05-09T15:27:41.464Z,102057.22
2023-05-09T15:30:11.044Z,102052.97
2023-05-09T15:32:41.646Z,102049.78
2023-05-09T15:35:10.336Z,102053.56
2023-05-09T15:37:38.641Z,102040.69
2023-05-09T15:40:08.017Z,102047.69
2023-05-09T15:42:37.685Z,102045.16
2023-05-09T15:45:06.535Z,102045.28
2023-05-09T15:47:34.599Z,102036.69
2023-05-09T15:50:02.786Z,102029.00
2023-05-09T15:52:30.796Z,102042.38
2023-05-09T15:55:16.534Z,102039.34
2023-05-09T15:57:48.148Z,102037.81
2023-05-09T16:00:17.547Z,102032.50
2023-05-09T16:02:45.860Z,102037.69
2023-05-09T16:05:13.876Z,102028.75
2023-05-09T16:07:45.011Z,102037.47
2023-05-09T16:10:13.267Z,102027.06
2023-05-09T16:12:41.514Z,102027.34
2023-05-09T16:15:11.955Z,102031.22
2023-05-09T16:17:39.689Z,102028.56
2023-05-09T16:20:08.723Z,102022.03
2023-05-09T16:22:36.640Z,102020.34
2023-05-09T16:25:04.706Z,102024.94
2023-05-09T16:27:34.922Z,102016.97
2023-05-09T16:30:03.144Z,102019.28
2023-05-09T16:32:32.439Z,102014.38
2023-05-09T16:35:00.386Z,102011.66
2023-05-09T16:37:29.826Z,102018.50
2023-05-09T16:39:59.328Z,102017.84
2023-05-09T16:42:28.638Z,102016.53
2023-05-09T16:44:57.050Z,102009.09
2023-05-09T16:47:25.030Z,102013.16
2023-05-09T16:49:54.309Z,102008.63
2023-05-09T16:52:23.342Z,102011.38
2023-05-09T16:54:52.385Z,102002.38
2023-05-09T16:57:20.192Z,102004.44
2023-05-09T16:59:48.261Z,101995.63
2023-05-09T17:02:16.209Z,102002.25
2023-05-09T17:04:44.188Z,101996.25
2023-05-09T17:07:14.547Z,101998.91
2023-05-09T17:09:43.183Z,101990.28
2023-05-09T17:12:17.482Z,101990.16
2023-05-09T17:14:45.711Z,101989.69
2023-05-09T17:17:14.791Z,101994.84
2023-05-09T17:19:42.762Z,101992.34
2023-05-09T17:22:10.972Z,101992.06
2023-05-09T17:24:40.299Z,101989.19
2023-05-09T17:27:08.739Z,101995.47
2023-05-09T17:29:36.695Z,101987.03
2023-05-09T17:32:04.770Z,101990.75
2023-05-09T17:34:32.856Z,101980.41
2023-05-09T17:37:02.205Z,101988.09
2023-05-09T17:39:30.254Z,101982.38
2023-05-09T17:41:59.967Z,101981.63
2023-05-09T17:44:27.933Z,101987.50
2023-05-09T17:46:55.778Z,101982.44
2023-05-09T17:49:23.656Z,101987.31
2023-05-09T17:51:52.722Z,101986.78
2023-05-09T17:54:20.604Z,101991.09
2023-05-09T17:56:51.239Z,101982.53
2023-05-09T17:59:20.531Z,101984.75
2023-05-09T18:01:48.567Z,101987.16
2023-05-09T18:04:16.801Z,101989.25
2023-05-09T18:06:44.733Z,101992.34
2023-05-09T18:09:12.709Z,101992.75
2023-05-09T18:11:40.587Z,101997.75
2023-05-09T18:14:08.444Z,101986.16
2023-05-09T18:16:38.064Z,101991.97
2023-05-09T18:19:06.098Z,101996.22
2023-05-09T18:21:34.034Z,101998.34
2023-05-09T18:24:01.889Z,102006.81
2023-05-09T18:26:29.833Z,102002.19
2023-05-09T18:28:57.798Z,101998.38
2023-05-09T18:31:26.050Z,102002.59
2023-05-09T18:33:55.546Z,102010.81
2023-05-09T18:36:23.640Z,102007.91
2023-05-09T18:38:51.955Z,102003.97
2023-05-09T18:41:20.030Z,101998.50
2023-05-09T18:43:48.066Z,102006.72
2023-05-09T18:46:17.760Z,102012.56
2023-05-09T18:48:46.644Z,102006.19
2023-05-09T18:51:16.413Z,102013.69
2023-05-09T18:53:44.912Z,102015.34
2023-05-09T18:56:13.179Z,102014.88
2023-05-09T18:58:41.564Z,102006.00
2023-05-09T19:01:12.007Z,102011.47
2023-05-09T19:03:45.554Z,102005.06
2023-05-09T19:06:16.590Z,102008.53
2023-05-09T19:08:45.176Z,102004.41
2023-05-09T19:11:13.722Z,102005.06
2023-05-09T19:13:48.569Z,102006.31
2023-05-09T19:16:20.539Z,102001.81
2023-05-09T19:18:49.301Z,102010.19
2023-05-09T19:21:19.258Z,102000.63
2023-05-09T19:23:49.380Z,102010.56
2023-05-09T19:26:18.114Z,102013.66
2023-05-09T19:28:47.260Z,102014.22
2023-05-09T19:31:15.576Z,102013.00
2023-05-09T19:33:45.706Z,102015.22
2023-05-09T19:36:17.974Z,102017.94
2023-05-09T19:38:48.840Z,102017.59
2023-05-09T19:41:17.142Z,102015.59
2023-05-09T19:43:46.626Z,102013.84
2023-05-09T19:46:15.188Z,102015.28
2023-05-09T19:48:43.532Z,102021.59
2023-05-09T19:51:12.527Z,102020.53
2023-05-09T19:53:41.752Z,102018.44
2023-05-09T19:56:12.746Z,102021.50
2023-05-09T19:58:41.153Z,102023.06
2023-05-09T20:01:09.407Z,102024.34
2023-05-09T20:03:38.812Z,102021.72
2023-05-09T20:06:07.842Z,102015.13
2023-05-09T20:08:36.291Z,102022.41
2023-05-09T20:11:04.500Z,102018.44
2023-05-09T20:13:34.048Z,102016.00
2023-05-09T20:16:03.309Z,102027.66
2023-05-09T20:18:33.363Z,102017.44
2023-05-09T20:21:01.398Z,102011.25
2023-05-09T20:23:29.689Z,102020.81
2023-05-09T20:25:57.825Z,102018.72
2023-05-09T20:28:25.800Z,102012.69
2023-05-09T20:30:55.240Z,102015.47
2023-05-09T20:33:23.063Z,102012.44
2023-05-09T20:35:50.977Z,102011.94
2023-05-09T20:38:19.187Z,102006.94
2023-05-09T20:40:47.201Z,102006.25
2023-05-09T20:43:15.148Z,102010.00
2023-05-09T20:45:43.142Z,102015.56
2023-05-09T20:48:12.406Z,102012.25
2023-05-09T20:50:40.433Z,102011.34
2023-05-09T20:53:08.251Z,102020.69
2023-05-09T20:55:36.081Z,102006.91
2023-05-09T20:58:04.032Z,102012.31
2023-05-09T21:00:32.874Z,102011.38
2023-05-09T21:03:00.930Z,102000.38
2023-05-09T21:05:30.266Z,102010.28
2023-05-09T21:07:58.289Z,102020.75
2023-05-09T21:10:26.525Z,102013.06
2023-05-09T21:12:54.350Z,102013.44
2023-05-09T21:15:22.307Z,102012.44
2023-05-09T21:17:50.151Z,102011.16
2023-05-09T21:20:18.526Z,102015.84
2023-05-09T21:22:48.075Z,102012.16
2023-05-09T21:25:17.392Z,102019.00
2023-05-09T21:27:46.260Z,102014.47
2023-05-09T21:30:14.455Z,102021.78
2023-05-09T21:32:42.595Z,102021.00
2023-05-09T21:35:12.874Z,102018.72
2023-05-09T21:37:40.969Z,102019.88
2023-05-09T21:40:11.158Z,102026.13
2023-05-09T21:42:40.270Z,102028.44
2023-05-09T21:45:09.155Z,102031.91
2023-05-09T21:47:39.549Z,102022.44
2023-05-09T21:50:08.180Z,102027.81
2023-05-09T21:52:36.011Z,102024.75
2023-05-09T21:55:03.970Z,102027.38
2023-05-09T21:57:33.162Z,102031.00
2023-05-09T22:00:02.004Z,102033.84
2023-05-09T22:02:30.069Z,102030.38
2023-05-09T22:04:58.068Z,102023.91
2023-05-09T22:07:25.933Z,102022.28
2023-05-09T22:09:54.193Z,102026.75
2023-05-09T22:12:23.033Z,102027.03
2023-05-09T22:14:56.374Z,102034.06
2023-05-09T22:17:25.180Z,102031.56
2023-05-09T22:19:53.165Z,102021.00
2023-05-09T22:22:21.500Z,102029.66
2023-05-09T22:24:49.821Z,102022.00
2023-05-09T22:27:17.750Z,102021.09
2023-05-09T22:29:46.582Z,102022.38
2023-05-09T22:32:15.834Z,102021.72
2023-05-09T22:34:43.870Z,102013.78
2023-05-09T22:37:11.765Z,102023.81
2023-05-09T22:39:39.858Z,102020.69
2023-05-09T22:42:09.776Z,102025.94
2023-05-09T22:44:38.547Z,102024.31
2023-05-09T22:47:08.129Z,102020.47
2023-05-09T22:49:37.475Z,102023.31
2023-05-09T22:52:05.804Z,102025.94
2023-05-09T22:54:36.439Z,102020.69
2023-05-09T22:57:04.615Z,102028.78
2023-05-09T22:59:32.649Z,102032.78
2023-05-09T23:02:00.912Z,102032.19
2023-05-09T23:04:28.872Z,102026.38
2023-05-09T23:06:58.235Z,102030.84
2023-05-09T23:09:26.197Z,102038.81
2023-05-09T23:11:54.958Z,102032.63
2023-05-09T23:14:23.069Z,102035.16
2023-05-09T23:16:51.054Z,102043.22
2023-05-09T23:19:19.710Z,102039.16
2023-05-09T23:21:47.608Z,102037.59
2023-05-09T23:24:16.955Z,102035.91
2023-05-09T23:26:44.853Z,102043.75
2023-05-09T23:29:12.751Z,102051.59
2023-05-09T23:31:40.936Z,102059.59
2023-05-09T23:34:08.975Z,102053.19
2023-05-09T23:36:36.801Z,102059.16
2023-05-09T23:39:04.826Z,102054.72
2023-05-09T23:41:34.038Z,102057.34
2023-05-09T23:44:03.359Z,102063.00
2023-05-09T23:46:31.423Z,102064.28
2023-05-09T23:48:59.391Z,102067.56
2023-05-09T23:51:27.427Z,102064.06
2023-05-09T23:53:55.297Z,102065.19
2023-05-09T23:56:23.328Z,102066.16
2023-05-09T23:58:52.692Z,102066.25
